sensor_id;sensor_type;location;lat;lon;timestamp;pressure;altitude;pressure_sealevel;temperature;humidity
79144;BME280;68551;47.484;19.092;2023-07-20T00:02:50;99648.72;;;25.50;55.04
79144;BME280;68551;47.484;19.092;2023-07-20T00:05:53;99645.31;;;25.44;55.36
79144;BME280;68551;47.484;19.092;2023-07-20T00:08:55;99645.88;;;25.37;55.34
79144;BME280;68551;47.484;19.092;2023-07-20T00:11:58;99639.47;;;25.16;55.45
79144;BME280;68551;47.484;19.092;2023-07-20T00:15:02;99636.19;;;25.14;55.65
79144;BME280;68551;47.484;19.092;2023-07-20T00:18:05;99642.66;;;25.27;55.34
79144;BME280;68551;47.484;19.092;2023-07-20T00:21:07;99646.41;;;25.31;55.51
79144;BME280;68551;47.484;19.092;2023-07-20T00:24:12;99637.88;;;25.27;55.96
79144;BME280;68551;47.484;19.092;2023-07-20T00:27:14;99634.66;;;25.25;55.94
79144;BME280;68551;47.484;19.092;2023-07-20T00:30:23;99637.56;;;25.29;55.54
79144;BME280;68551;47.484;19.092;2023-07-20T00:33:31;99638.38;;;25.29;55.14
79144;BME280;68551;47.484;19.092;2023-07-20T00:36:38;99648.13;;;25.23;55.94
79144;BME280;68551;47.484;19.092;2023-07-20T00:39:40;99650.59;;;25.16;55.89
79144;BME280;68551;47.484;19.092;2023-07-20T00:42:45;99648.03;;;25.11;56.39
79144;BME280;68551;47.484;19.092;2023-07-20T00:45:47;99655.28;;;25.03;56.79
79144;BME280;68551;47.484;19.092;2023-07-20T00:48:50;99625.84;;;24.94;56.64
79144;BME280;68551;47.484;19.092;2023-07-20T00:51:52;99626.34;;;24.96;56.77
79144;BME280;68551;47.484;19.092;2023-07-20T00:54:58;99626.81;;;24.98;56.67
79144;BME280;68551;47.484;19.092;2023-07-20T00:58:04;99632.06;;;24.91;56.79
79144;BME280;68551;47.484;19.092;2023-07-20T01:01:09;99619.47;;;24.85;56.74
79144;BME280;68551;47.484;19.092;2023-07-20T01:04:15;99621.31;;;24.81;57.17
79144;BME280;68551;47.484;19.092;2023-07-20T01:07:59;99613.97;;;24.76;57.36
79144;BME280;68551;47.484;19.092;2023-07-20T01:11:16;99610.16;;;24.81;57.25
79144;BME280;68551;47.484;19.092;2023-07-20T01:14:25;99602.53;;;24.69;57.43
79144;BME280;68551;47.484;19.092;2023-07-20T01:17:27;99599.59;;;24.65;57.88
79144;BME280;68551;47.484;19.092;2023-07-20T01:20:36;99597.63;;;24.66;57.68
79144;BME280;68551;47.484;19.092;2023-07-20T01:24:11;99598.97;;;24.60;57.78
79144;BME280;68551;47.484;19.092;2023-07-20T01:27:36;99603.88;;;24.63;58.13
79144;BME280;68551;47.484;19.092;2023-07-20T01:34:23;99597.31;;;24.67;58.26
79144;BME280;68551;47.484;19.092;2023-07-20T01:37:27;99607.81;;;24.62;57.81
79144;BME280;68551;47.484;19.092;2023-07-20T01:40:31;99620.09;;;24.61;58.14
79144;BME280;68551;47.484;19.092;2023-07-20T01:43:36;99622.41;;;24.59;58.37
79144;BME280;68551;47.484;19.092;2023-07-20T01:46:42;99611.75;;;24.61;58.28
79144;BME280;68551;47.484;19.092;2023-07-20T01:49:47;99621.59;;;24.58;58.33
79144;BME280;68551;47.484;19.092;2023-07-20T01:52:52;99622.41;;;24.59;58.25
79144;BME280;68551;47.484;19.092;2023-07-20T01:55:57;99627.97;;;24.59;58.54
79144;BME280;68551;47.484;19.092;2023-07-20T01:58:59;99609.41;;;24.42;58.78
79144;BME280;68551;47.484;19.092;2023-07-20T02:02:05;99634.75;;;24.49;58.57
79144;BME280;68551;47.484;19.092;2023-07-20T02:05:07;99639.56;;;24.40;58.90
79144;BME280;68551;47.484;19.092;2023-07-20T02:08:14;99649.59;;;24.24;59.62
79144;BME280;68551;47.484;19.092;2023-07-20T02:11:22;99647.81;;;24.28;59.65
79144;BME280;68551;47.484;19.092;2023-07-20T02:14:25;99651.56;;;24.23;60.19
79144;BME280;68551;47.484;19.092;2023-07-20T02:17:28;99647.31;;;24.26;59.60
79144;BME280;68551;47.484;19.092;2023-07-20T02:20:31;99650.59;;;24.28;59.75
79144;BME280;68551;47.484;19.092;2023-07-20T02:23:33;99651.22;;;24.33;59.69
79144;BME280;68551;47.484;19.092;2023-07-20T02:26:36;99642.53;;;24.35;59.47
79144;BME280;68551;47.484;19.092;2023-07-20T02:29:40;99635.97;;;24.31;59.20
79144;BME280;68551;47.484;19.092;2023-07-20T02:32:45;99647.28;;;24.34;58.99
79144;BME280;68551;47.484;19.092;2023-07-20T02:35:50;99647.44;;;24.38;58.33
79144;BME280;68551;47.484;19.092;2023-07-20T02:38:58;99645.97;;;24.32;58.55
79144;BME280;68551;47.484;19.092;2023-07-20T02:42:04;99658.41;;;24.34;58.54
79144;BME280;68551;47.484;19.092;2023-07-20T02:45:09;99645.47;;;24.30;58.41
79144;BME280;68551;47.484;19.092;2023-07-20T02:48:18;99645.31;;;24.35;58.56
79144;BME280;68551;47.484;19.092;2023-07-20T02:51:23;99647.94;;;24.31;58.32
79144;BME280;68551;47.484;19.092;2023-07-20T02:54:26;99654.31;;;24.32;58.75
79144;BME280;68551;47.484;19.092;2023-07-20T02:57:33;99644.81;;;24.33;58.84
79144;BME280;68551;47.484;19.092;2023-07-20T03:00:35;99654.63;;;24.39;58.15
79144;BME280;68551;47.484;19.092;2023-07-20T03:03:42;99655.63;;;24.34;58.12
79144;BME280;68551;47.484;19.092;2023-07-20T03:06:51;99653.00;;;24.38;55.75
79144;BME280;68551;47.484;19.092;2023-07-20T03:09:54;99650.81;;;24.44;54.62
79144;BME280;68551;47.484;19.092;2023-07-20T03:12:59;99653.59;;;24.52;55.78
79144;BME280;68551;47.484;19.092;2023-07-20T03:16:01;99652.34;;;24.41;58.10
79144;BME280;68551;47.484;19.092;2023-07-20T03:19:04;99667.25;;;24.36;58.86
79144;BME280;68551;47.484;19.092;2023-07-20T03:22:07;99674.00;;;24.27;59.12
79144;BME280;68551;47.484;19.092;2023-07-20T03:25:11;99679.41;;;24.23;59.09
79144;BME280;68551;47.484;19.092;2023-07-20T03:28:16;99687.09;;;24.18;58.96
79144;BME280;68551;47.484;19.092;2023-07-20T03:31:19;99687.44;;;24.25;58.09
79144;BME280;68551;47.484;19.092;2023-07-20T03:34:21;99690.19;;;24.33;56.05
79144;BME280;68551;47.484;19.092;2023-07-20T03:37:26;99696.41;;;24.39;55.77
79144;BME280;68551;47.484;19.092;2023-07-20T03:40:31;99700.97;;;24.44;55.41
79144;BME280;68551;47.484;19.092;2023-07-20T03:43:33;99708.31;;;24.48;54.05
79144;BME280;68551;47.484;19.092;2023-07-20T03:46:36;99688.53;;;24.41;53.34
79144;BME280;68551;47.484;19.092;2023-07-20T03:49:39;99707.19;;;24.49;53.96
79144;BME280;68551;47.484;19.092;2023-07-20T03:52:44;99712.56;;;24.54;54.61
79144;BME280;68551;47.484;19.092;2023-07-20T03:58:48;99718.50;;;24.44;54.17
79144;BME280;68551;47.484;19.092;2023-07-20T04:01:51;99727.69;;;24.36;54.60
79144;BME280;68551;47.484;19.092;2023-07-20T04:04:53;99724.47;;;24.25;54.93
79144;BME280;68551;47.484;19.092;2023-07-20T04:07:58;99723.78;;;24.20;54.10
79144;BME280;68551;47.484;19.092;2023-07-20T04:11:04;99711.66;;;24.16;54.62
79144;BME280;68551;47.484;19.092;2023-07-20T04:14:09;99714.78;;;24.14;54.27
79144;BME280;68551;47.484;19.092;2023-07-20T04:17:11;99714.63;;;24.11;54.47
79144;BME280;68551;47.484;19.092;2023-07-20T04:20:15;99708.25;;;24.10;54.44
79144;BME280;68551;47.484;19.092;2023-07-20T04:23:22;99703.31;;;24.24;54.17
79144;BME280;68551;47.484;19.092;2023-07-20T04:26:25;99707.25;;;24.23;54.28
79144;BME280;68551;47.484;19.092;2023-07-20T04:29:28;99694.66;;;24.26;53.92
79144;BME280;68551;47.484;19.092;2023-07-20T04:32:32;99702.97;;;24.17;54.44
79144;BME280;68551;47.484;19.092;2023-07-20T04:35:53;99701.84;;;24.10;54.56
79144;BME280;68551;47.484;19.092;2023-07-20T04:39:04;99701.53;;;24.02;54.61
79144;BME280;68551;47.484;19.092;2023-07-20T04:42:31;99698.56;;;24.25;53.78
79144;BME280;68551;47.484;19.092;2023-07-20T04:45:36;99704.72;;;24.48;53.99
79144;BME280;68551;47.484;19.092;2023-07-20T04:48:38;99700.06;;;24.69;52.64
79144;BME280;68551;47.484;19.092;2023-07-20T04:51:45;99702.19;;;25.01;52.27
79144;BME280;68551;47.484;19.092;2023-07-20T04:54:50;99709.06;;;25.33;49.51
79144;BME280;68551;47.484;19.092;2023-07-20T04:57:55;99704.22;;;25.42;46.93
79144;BME280;68551;47.484;19.092;2023-07-20T05:01:00;99704.91;;;25.60;45.56
79144;BME280;68551;47.484;19.092;2023-07-20T05:04:03;99706.34;;;25.87;44.60
79144;BME280;68551;47.484;19.092;2023-07-20T05:07:07;99692.22;;;26.04;44.38
79144;BME280;68551;47.484;19.092;2023-07-20T05:10:12;99709.34;;;26.36;43.20
79144;BME280;68551;47.484;19.092;2023-07-20T05:13:15;99705.16;;;26.54;42.73
79144;BME280;68551;47.484;19.092;2023-07-20T05:16:19;99705.19;;;26.78;42.25
79144;BME280;68551;47.484;19.092;2023-07-20T05:19:29;99704.59;;;26.85;42.32
79144;BME280;68551;47.484;19.092;2023-07-20T05:22:32;99711.38;;;26.96;42.20
79144;BME280;68551;47.484;19.092;2023-07-20T05:25:40;99708.16;;;27.06;41.67
79144;BME280;68551;47.484;19.092;2023-07-20T05:28:43;99701.09;;;27.25;40.90
79144;BME280;68551;47.484;19.092;2023-07-20T05:31:47;99714.28;;;27.36;40.16
79144;BME280;68551;47.484;19.092;2023-07-20T05:34:54;99710.63;;;27.60;39.78
79144;BME280;68551;47.484;19.092;2023-07-20T05:38:00;99706.91;;;27.56;39.52
79144;BME280;68551;47.484;19.092;2023-07-20T05:41:05;99705.84;;;27.48;39.24
79144;BME280;68551;47.484;19.092;2023-07-20T05:44:16;99718.41;;;27.67;39.25
79144;BME280;68551;47.484;19.092;2023-07-20T05:47:20;99716.44;;;27.95;38.78
79144;BME280;68551;47.484;19.092;2023-07-20T05:50:23;99708.97;;;28.27;38.83
79144;BME280;68551;47.484;19.092;2023-07-20T05:53:28;99716.06;;;28.52;38.30
79144;BME280;68551;47.484;19.092;2023-07-20T05:56:33;99720.75;;;28.64;37.29
79144;BME280;68551;47.484;19.092;2023-07-20T05:59:35;99719.63;;;28.97;36.96
79144;BME280;68551;47.484;19.092;2023-07-20T06:02:41;99715.34;;;29.18;36.67
79144;BME280;68551;47.484;19.092;2023-07-20T06:05:43;99719.28;;;29.68;35.91
79144;BME280;68551;47.484;19.092;2023-07-20T06:08:48;99716.84;;;29.67;34.81
79144;BME280;68551;47.484;19.092;2023-07-20T06:11:50;99722.00;;;29.65;35.45
79144;BME280;68551;47.484;19.092;2023-07-20T06:14:53;99729.34;;;29.69;35.29
79144;BME280;68551;47.484;19.092;2023-07-20T06:17:55;99720.53;;;29.90;34.68
79144;BME280;68551;47.484;19.092;2023-07-20T06:21:03;99737.25;;;30.21;34.30
79144;BME280;68551;47.484;19.092;2023-07-20T06:24:08;99734.41;;;30.18;34.35
79144;BME280;68551;47.484;19.092;2023-07-20T06:27:12;99737.78;;;30.27;34.01
79144;BME280;68551;47.484;19.092;2023-07-20T06:30:15;99751.94;;;30.11;34.78
79144;BME280;68551;47.484;19.092;2023-07-20T06:33:20;99753.00;;;30.45;34.73
79144;BME280;68551;47.484;19.092;2023-07-20T06:36:23;99756.03;;;30.56;34.71
79144;BME280;68551;47.484;19.092;2023-07-20T06:39:28;99749.84;;;30.27;34.61
79144;BME280;68551;47.484;19.092;2023-07-20T06:42:38;99754.28;;;30.28;34.80
79144;BME280;68551;47.484;19.092;2023-07-20T06:45:43;99765.38;;;30.41;34.50
79144;BME280;68551;47.484;19.092;2023-07-20T06:48:46;99767.16;;;30.94;34.18
79144;BME280;68551;47.484;19.092;2023-07-20T06:51:54;99776.03;;;31.16;33.03
79144;BME280;68551;47.484;19.092;2023-07-20T06:54:59;99785.91;;;31.32;33.15
79144;BME280;68551;47.484;19.092;2023-07-20T06:58:12;99789.94;;;31.58;32.56
79144;BME280;68551;47.484;19.092;2023-07-20T07:01:14;99788.56;;;31.22;33.34
79144;BME280;68551;47.484;19.092;2023-07-20T07:04:17;99782.69;;;31.57;32.68
79144;BME280;68551;47.484;19.092;2023-07-20T07:07:21;99786.63;;;32.38;30.68
79144;BME280;68551;47.484;19.092;2023-07-20T07:10:28;99796.19;;;32.64;29.24
79144;BME280;68551;47.484;19.092;2023-07-20T07:13:33;99808.88;;;31.61;30.67
79144;BME280;68551;47.484;19.092;2023-07-20T07:16:39;99794.19;;;31.71;30.18
79144;BME280;68551;47.484;19.092;2023-07-20T07:19:44;99796.22;;;32.67;29.34
79144;BME280;68551;47.484;19.092;2023-07-20T07:22:50;99797.44;;;32.03;29.62
79144;BME280;68551;47.484;19.092;2023-07-20T07:25:55;99795.06;;;33.13;28.39
79144;BME280;68551;47.484;19.092;2023-07-20T07:29:00;99790.47;;;32.94;28.45
79144;BME280;68551;47.484;19.092;2023-07-20T07:32:02;99784.81;;;33.41;28.07
79144;BME280;68551;47.484;19.092;2023-07-20T07:35:08;99789.75;;;33.52;27.53
79144;BME280;68551;47.484;19.092;2023-07-20T07:38:10;99803.00;;;32.96;28.59
79144;BME280;68551;47.484;19.092;2023-07-20T07:41:32;99811.31;;;32.82;29.06
79144;BME280;68551;47.484;19.092;2023-07-20T07:44:37;99807.50;;;32.67;28.69
79144;BME280;68551;47.484;19.092;2023-07-20T07:47:42;99817.59;;;32.68;28.70
79144;BME280;68551;47.484;19.092;2023-07-20T07:50:49;99799.50;;;33.61;28.00
79144;BME280;68551;47.484;19.092;2023-07-20T07:53:52;99805.50;;;34.25;27.01
79144;BME280;68551;47.484;19.092;2023-07-20T07:56:57;99787.53;;;35.11;25.41
79144;BME280;68551;47.484;19.092;2023-07-20T07:59:59;99786.75;;;35.14;25.91
79144;BME280;68551;47.484;19.092;2023-07-20T08:03:01;99801.69;;;35.68;24.53
79144;BME280;68551;47.484;19.092;2023-07-20T08:06:06;99801.97;;;36.27;23.92
79144;BME280;68551;47.484;19.092;2023-07-20T08:09:09;99795.91;;;36.11;23.33
79144;BME280;68551;47.484;19.092;2023-07-20T08:12:14;99805.56;;;36.42;22.33
79144;BME280;68551;47.484;19.092;2023-07-20T08:15:22;99803.31;;;35.69;23.65
79144;BME280;68551;47.484;19.092;2023-07-20T08:18:28;99798.47;;;35.52;24.35
79144;BME280;68551;47.484;19.092;2023-07-20T08:21:33;99807.56;;;36.41;22.81
79144;BME280;68551;47.484;19.092;2023-07-20T08:24:40;99807.34;;;35.90;23.79
79144;BME280;68551;47.484;19.092;2023-07-20T08:27:43;99804.38;;;36.32;22.86
79144;BME280;68551;47.484;19.092;2023-07-20T08:30:49;99808.72;;;36.54;22.96
79144;BME280;68551;47.484;19.092;2023-07-20T08:33:56;99802.47;;;35.94;22.86
79144;BME280;68551;47.484;19.092;2023-07-20T08:36:59;99800.69;;;36.42;23.15
79144;BME280;68551;47.484;19.092;2023-07-20T08:40:04;99811.22;;;36.49;23.19
79144;BME280;68551;47.484;19.092;2023-07-20T08:43:06;99814.78;;;36.56;23.09
79144;BME280;68551;47.484;19.092;2023-07-20T08:46:10;99808.69;;;37.24;22.09
79144;BME280;68551;47.484;19.092;2023-07-20T08:49:16;99810.56;;;38.23;21.01
79144;BME280;68551;47.484;19.092;2023-07-20T08:52:22;99800.22;;;37.65;21.73
79144;BME280;68551;47.484;19.092;2023-07-20T08:55:27;99818.66;;;37.46;22.26
79144;BME280;68551;47.484;19.092;2023-07-20T08:58:37;99809.56;;;34.24;24.93
79144;BME280;68551;47.484;19.092;2023-07-20T09:01:46;99807.34;;;35.86;23.36
79144;BME280;68551;47.484;19.092;2023-07-20T09:04:53;99814.56;;;36.19;24.03
79144;BME280;68551;47.484;19.092;2023-07-20T09:07:56;99819.25;;;36.57;22.76
79144;BME280;68551;47.484;19.092;2023-07-20T09:11:03;99806.00;;;36.33;22.86
79144;BME280;68551;47.484;19.092;2023-07-20T09:14:06;99818.19;;;36.19;22.93
79144;BME280;68551;47.484;19.092;2023-07-20T09:17:15;99815.28;;;36.44;22.72
79144;BME280;68551;47.484;19.092;2023-07-20T09:20:21;99814.66;;;35.83;22.84
79144;BME280;68551;47.484;19.092;2023-07-20T09:23:36;99812.66;;;35.45;22.90
79144;BME280;68551;47.484;19.092;2023-07-20T09:26:43;99814.72;;;35.37;22.83
79144;BME280;68551;47.484;19.092;2023-07-20T09:32:51;99823.88;;;34.67;23.36
79144;BME280;68551;47.484;19.092;2023-07-20T09:36:02;99811.66;;;34.34;24.15
79144;BME280;68551;47.484;19.092;2023-07-20T09:39:27;99825.72;;;34.24;24.19
79144;BME280;68551;47.484;19.092;2023-07-20T09:42:31;99830.81;;;33.42;25.64
79144;BME280;68551;47.484;19.092;2023-07-20T09:45:41;99831.06;;;32.82;26.25
79144;BME280;68551;47.484;19.092;2023-07-20T09:48:52;99830.13;;;33.56;25.96
79144;BME280;68551;47.484;19.092;2023-07-20T09:52:03;99822.00;;;33.47;26.06
79144;BME280;68551;47.484;19.092;2023-07-20T09:55:07;99816.28;;;33.95;25.67
79144;BME280;68551;47.484;19.092;2023-07-20T09:58:09;99814.50;;;33.72;25.24
79144;BME280;68551;47.484;19.092;2023-07-20T10:01:12;99821.91;;;33.36;25.81
79144;BME280;68551;47.484;19.092;2023-07-20T10:04:24;99822.50;;;33.12;26.35
79144;BME280;68551;47.484;19.092;2023-07-20T10:07:30;99839.31;;;33.01;26.21
79144;BME280;68551;47.484;19.092;2023-07-20T10:10:33;99839.88;;;32.77;26.83
79144;BME280;68551;47.484;19.092;2023-07-20T10:13:38;99841.66;;;33.33;26.35
79144;BME280;68551;47.484;19.092;2023-07-20T10:16:50;99833.41;;;33.17;26.54
79144;BME280;68551;47.484;19.092;2023-07-20T10:19:57;99837.22;;;33.32;26.08
79144;BME280;68551;47.484;19.092;2023-07-20T10:23:04;99842.13;;;33.01;26.89
79144;BME280;68551;47.484;19.092;2023-07-20T10:26:09;99845.72;;;32.61;27.57
79144;BME280;68551;47.484;19.092;2023-07-20T10:29:19;99843.13;;;32.46;27.85
79144;BME280;68551;47.484;19.092;2023-07-20T10:32:22;99849.78;;;32.30;28.62
79144;BME280;68551;47.484;19.092;2023-07-20T10:35:25;99845.97;;;32.49;28.26
79144;BME280;68551;47.484;19.092;2023-07-20T10:38:54;99849.94;;;32.45;28.33
79144;BME280;68551;47.484;19.092;2023-07-20T10:42:07;99832.50;;;32.05;28.54
79144;BME280;68551;47.484;19.092;2023-07-20T10:45:10;99839.09;;;32.17;28.38
79144;BME280;68551;47.484;19.092;2023-07-20T10:48:26;99837.00;;;32.10;29.16
79144;BME280;68551;47.484;19.092;2023-07-20T10:51:42;99837.56;;;32.19;29.08
79144;BME280;68551;47.484;19.092;2023-07-20T10:54:48;99835.31;;;32.05;29.16
79144;BME280;68551;47.484;19.092;2023-07-20T10:58:12;99841.69;;;31.73;29.34
79144;BME280;68551;47.484;19.092;2023-07-20T11:01:17;99841.34;;;31.51;28.89
79144;BME280;68551;47.484;19.092;2023-07-20T11:04:46;99853.03;;;31.53;28.58
79144;BME280;68551;47.484;19.092;2023-07-20T11:07:49;99847.31;;;31.73;28.24
79144;BME280;68551;47.484;19.092;2023-07-20T11:11:21;99833.41;;;31.34;28.31
79144;BME280;68551;47.484;19.092;2023-07-20T11:14:25;99817.16;;;31.24;28.20
79144;BME280;68551;47.484;19.092;2023-07-20T11:17:30;99818.94;;;31.35;28.13
79144;BME280;68551;47.484;19.092;2023-07-20T11:20:32;99824.22;;;31.37;27.94
79144;BME280;68551;47.484;19.092;2023-07-20T11:23:37;99833.91;;;31.40;27.61
79144;BME280;68551;47.484;19.092;2023-07-20T11:29:56;99819.97;;;31.24;27.92
79144;BME280;68551;47.484;19.092;2023-07-20T11:33:01;99834.16;;;31.31;27.58
79144;BME280;68551;47.484;19.092;2023-07-20T11:36:08;99830.75;;;31.45;27.29
79144;BME280;68551;47.484;19.092;2023-07-20T11:39:19;99821.69;;;31.09;27.64
79144;BME280;68551;47.484;19.092;2023-07-20T11:42:23;99829.00;;;30.91;28.34
79144;BME280;68551;47.484;19.092;2023-07-20T11:45:30;99837.44;;;30.91;29.31
79144;BME280;68551;47.484;19.092;2023-07-20T11:48:35;99815.13;;;30.79;28.73
79144;BME280;68551;47.484;19.092;2023-07-20T11:51:39;99837.06;;;30.92;28.90
79144;BME280;68551;47.484;19.092;2023-07-20T11:54:45;99821.44;;;30.72;27.80
79144;BME280;68551;47.484;19.092;2023-07-20T11:58:01;99831.06;;;30.71;28.49
79144;BME280;68551;47.484;19.092;2023-07-20T12:01:08;99810.66;;;30.55;27.79
79144;BME280;68551;47.484;19.092;2023-07-20T12:04:16;99817.59;;;30.61;28.33
79144;BME280;68551;47.484;19.092;2023-07-20T12:07:19;99820.28;;;30.54;28.74
79144;BME280;68551;47.484;19.092;2023-07-20T12:10:26;99812.56;;;30.70;28.74
79144;BME280;68551;47.484;19.092;2023-07-20T12:13:44;99813.88;;;30.76;28.86
79144;BME280;68551;47.484;19.092;2023-07-20T12:16:52;99796.41;;;30.67;28.62
79144;BME280;68551;47.484;19.092;2023-07-20T12:19:57;99795.41;;;30.56;28.00
79144;BME280;68551;47.484;19.092;2023-07-20T12:23:05;99804.34;;;30.61;28.17
79144;BME280;68551;47.484;19.092;2023-07-20T12:26:10;99806.03;;;30.66;28.42
79144;BME280;68551;47.484;19.092;2023-07-20T12:29:13;99807.28;;;30.88;28.53
79144;BME280;68551;47.484;19.092;2023-07-20T12:32:15;99808.81;;;30.85;28.92
79144;BME280;68551;47.484;19.092;2023-07-20T12:35:20;99803.75;;;30.94;28.60
79144;BME280;68551;47.484;19.092;2023-07-20T12:38:23;99796.19;;;30.98;28.49
79144;BME280;68551;47.484;19.092;2023-07-20T12:41:25;99794.75;;;30.85;28.90
79144;BME280;68551;47.484;19.092;2023-07-20T12:44:30;99802.31;;;30.81;29.21
79144;BME280;68551;47.484;19.092;2023-07-20T12:47:34;99798.31;;;30.82;26.87
79144;BME280;68551;47.484;19.092;2023-07-20T12:50:39;99794.31;;;30.83;26.10
79144;BME280;68551;47.484;19.092;2023-07-20T12:53:42;99791.97;;;30.66;26.56
79144;BME280;68551;47.484;19.092;2023-07-20T12:56:46;99799.41;;;30.55;27.57
79144;BME280;68551;47.484;19.092;2023-07-20T12:59:51;99801.47;;;30.58;27.65
79144;BME280;68551;47.484;19.092;2023-07-20T13:02:53;99790.69;;;30.60;26.76
79144;BME280;68551;47.484;19.092;2023-07-20T13:05:59;99789.63;;;30.68;26.06
79144;BME280;68551;47.484;19.092;2023-07-20T13:09:07;99775.41;;;30.61;26.05
79144;BME280;68551;47.484;19.092;2023-07-20T13:12:14;99800.72;;;30.42;26.35
79144;BME280;68551;47.484;19.092;2023-07-20T13:15:17;99799.53;;;30.43;26.63
79144;BME280;68551;47.484;19.092;2023-07-20T13:18:21;99807.16;;;30.42;27.05
79144;BME280;68551;47.484;19.092;2023-07-20T13:21:24;99809.09;;;30.57;26.40
79144;BME280;68551;47.484;19.092;2023-07-20T13:24:29;99797.31;;;30.32;27.32
79144;BME280;68551;47.484;19.092;2023-07-20T13:27:31;99799.09;;;30.41;27.36
79144;BME280;68551;47.484;19.092;2023-07-20T13:30:34;99796.44;;;30.28;27.27
79144;BME280;68551;47.484;19.092;2023-07-20T13:33:37;99796.44;;;30.28;27.10
79144;BME280;68551;47.484;19.092;2023-07-20T13:36:41;99787.56;;;30.26;27.47
79144;BME280;68551;47.484;19.092;2023-07-20T13:39:45;99793.28;;;30.30;27.59
79144;BME280;68551;47.484;19.092;2023-07-20T13:42:47;99795.84;;;30.00;27.85
79144;BME280;68551;47.484;19.092;2023-07-20T13:45:56;99795.59;;;29.89;27.71
79144;BME280;68551;47.484;19.092;2023-07-20T13:48:59;99783.69;;;29.96;27.50
79144;BME280;68551;47.484;19.092;2023-07-20T13:52:01;99784.31;;;30.05;27.76
79144;BME280;68551;47.484;19.092;2023-07-20T13:55:08;99790.16;;;30.16;27.63
79144;BME280;68551;47.484;19.092;2023-07-20T13:58:13;99787.94;;;30.25;28.09
79144;BME280;68551;47.484;19.092;2023-07-20T14:01:15;99780.94;;;30.15;28.27
79144;BME280;68551;47.484;19.092;2023-07-20T14:04:33;99780.06;;;29.95;28.46
79144;BME280;68551;47.484;19.092;2023-07-20T14:07:36;99780.75;;;29.89;28.59
79144;BME280;68551;47.484;19.092;2023-07-20T14:10:41;99778.06;;;29.96;28.27
79144;BME280;68551;47.484;19.092;2023-07-20T14:13:46;99776.91;;;29.97;28.59
79144;BME280;68551;47.484;19.092;2023-07-20T14:16:53;99783.88;;;30.03;28.52
79144;BME280;68551;47.484;19.092;2023-07-20T14:19:56;99779.38;;;29.99;28.81
79144;BME280;68551;47.484;19.092;2023-07-20T14:23:01;99791.66;;;29.94;28.11
79144;BME280;68551;47.484;19.092;2023-07-20T14:26:03;99785.66;;;29.76;28.17
79144;BME280;68551;47.484;19.092;2023-07-20T14:29:11;99779.25;;;29.76;28.19
79144;BME280;68551;47.484;19.092;2023-07-20T14:32:14;99761.63;;;29.79;27.39
79144;BME280;68551;47.484;19.092;2023-07-20T14:35:18;99794.94;;;29.96;27.49
79144;BME280;68551;47.484;19.092;2023-07-20T14:38:22;99807.72;;;29.93;27.35
79144;BME280;68551;47.484;19.092;2023-07-20T14:41:29;99790.25;;;29.84;27.51
79144;BME280;68551;47.484;19.092;2023-07-20T14:44:32;99796.09;;;29.76;27.75
79144;BME280;68551;47.484;19.092;2023-07-20T14:47:35;99786.31;;;29.70;27.85
79144;BME280;68551;47.484;19.092;2023-07-20T14:50:40;99784.41;;;29.74;28.43
79144;BME280;68551;47.484;19.092;2023-07-20T14:53:47;99782.47;;;29.78;28.54
79144;BME280;68551;47.484;19.092;2023-07-20T14:56:54;99787.97;;;29.90;28.04
79144;BME280;68551;47.484;19.092;2023-07-20T15:00:00;99785.00;;;29.83;27.40
79144;BME280;68551;47.484;19.092;2023-07-20T15:03:03;99797.88;;;29.84;28.10
79144;BME280;68551;47.484;19.092;2023-07-20T15:06:10;99793.22;;;29.91;28.09
79144;BME280;68551;47.484;19.092;2023-07-20T15:09:15;99791.81;;;29.82;28.35
79144;BME280;68551;47.484;19.092;2023-07-20T15:12:23;99781.06;;;29.68;28.65
79144;BME280;68551;47.484;19.092;2023-07-20T15:15:27;99800.16;;;29.78;28.86
79144;BME280;68551;47.484;19.092;2023-07-20T15:18:30;99789.38;;;29.80;28.63
79144;BME280;68551;47.484;19.092;2023-07-20T15:21:48;99789.59;;;29.72;28.57
79144;BME280;68551;47.484;19.092;2023-07-20T15:24:50;99786.78;;;29.72;29.25
79144;BME280;68551;47.484;19.092;2023-07-20T15:27:58;99789.00;;;29.82;28.74
79144;BME280;68551;47.484;19.092;2023-07-20T15:31:04;99789.81;;;29.82;28.61
79144;BME280;68551;47.484;19.092;2023-07-20T15:34:14;99784.06;;;29.75;27.97
79144;BME280;68551;47.484;19.092;2023-07-20T15:37:19;99773.47;;;29.69;28.15
79144;BME280;68551;47.484;19.092;2023-07-20T15:40:21;99778.50;;;29.79;28.50
79144;BME280;68551;47.484;19.092;2023-07-20T15:43:28;99789.03;;;29.66;28.59
79144;BME280;68551;47.484;19.092;2023-07-20T15:49:43;99789.84;;;29.67;27.44
79144;BME280;68551;47.484;19.092;2023-07-20T15:52:48;99795.47;;;29.67;27.69
79144;BME280;68551;47.484;19.092;2023-07-20T15:55:55;99783.97;;;29.72;27.60
79144;BME280;68551;47.484;19.092;2023-07-20T15:59:02;99786.53;;;29.61;27.86
79144;BME280;68551;47.484;19.092;2023-07-20T16:02:06;99788.81;;;29.55;28.40
79144;BME280;68551;47.484;19.092;2023-07-20T16:05:09;99798.84;;;29.56;28.58
79144;BME280;68551;47.484;19.092;2023-07-20T16:08:14;99793.72;;;29.43;28.74
79144;BME280;68551;47.484;19.092;2023-07-20T16:11:21;99793.97;;;29.38;29.02
79144;BME280;68551;47.484;19.092;2023-07-20T16:14:28;99793.97;;;29.38;28.85
79144;BME280;68551;47.484;19.092;2023-07-20T16:17:56;99800.75;;;29.37;28.35
79144;BME280;68551;47.484;19.092;2023-07-20T16:20:59;99795.94;;;29.37;28.98
79144;BME280;68551;47.484;19.092;2023-07-20T16:24:01;99792.47;;;29.40;28.83
79144;BME280;68551;47.484;19.092;2023-07-20T16:27:06;99794.53;;;29.27;28.57
79144;BME280;68551;47.484;19.092;2023-07-20T16:30:11;99788.75;;;29.05;29.32